Time;durP1;ratioP1;P1;durP2;ratioP2;P2;SDS_P1;SDS_P2;PMS_P1;PMS_P2;Temp;Humidity;BMP_temperature;BMP_pressure;BME280_temperature;BME280_humidity;BME280_pressure;Samples;Min_cycle;Max_cycle;Signal;HPM_P1;HPM_P2
2022/01/14 00:01:01;;;;;;;38.40;24.60;;;1.50;99.90;;;;;;2620438;47;20180;-81
2022/01/14 00:03:26;;;;;;;36.00;22.80;;;1.60;99.90;;;;;;2620004;54;20529;-80
2022/01/14 00:05:52;;;;;;;36.03;22.90;;;1.80;99.90;;;;;;2620250;39;20849;-82
2022/01/14 00:08:19;;;;;;;40.03;23.63;;;2.00;99.90;;;;;;2620320;39;20566;-82
2022/01/14 00:10:48;;;;;;;37.97;24.33;;;1.90;99.90;;;;;;2620090;47;20143;-82
2022/01/14 00:13:38;;;;;;;37.97;23.30;;;2.00;99.90;;;;;;2620022;54;20375;-81
2022/01/14 00:16:04;;;;;;;51.23;23.70;;;2.00;99.90;;;;;;2620113;47;20431;-80
2022/01/14 00:18:30;;;;;;;36.87;22.57;;;2.10;99.90;;;;;;2619816;54;20347;-80
2022/01/14 00:20:56;;;;;;;37.50;21.00;;;2.20;99.90;;;;;;2619682;47;20394;-80
2022/01/14 00:23:29;;;;;;;29.00;20.77;;;2.20;99.90;;;;;;2620633;46;20363;-79
2022/01/14 00:31:43;;;;;;;35.47;24.70;;;1.90;99.90;;;;;;2620007;47;20988;-80
2022/01/14 00:34:14;;;;;;;34.07;22.03;;;1.90;99.90;;;;;;2620185;47;20363;-81
2022/01/14 00:36:40;;;;;;;31.47;20.83;;;1.90;99.90;;;;;;2620360;46;20376;-80
2022/01/14 00:39:09;;;;;;;31.67;22.90;;;1.90;99.90;;;;;;2620215;54;20462;-80
2022/01/14 00:41:36;;;;;;;29.20;19.80;;;2.00;99.90;;;;;;2620223;54;20372;-81
2022/01/14 00:44:16;;;;;;;36.20;20.27;;;2.00;99.90;;;;;;2620365;54;20982;-80
2022/01/14 00:46:45;;;;;;;28.83;20.10;;;2.10;99.90;;;;;;2620448;46;20452;-80
2022/01/14 00:49:20;;;;;;;18.07;12.93;;;2.10;99.90;;;;;;2620449;39;20826;-80
2022/01/14 00:51:47;;;;;;;40.03;22.00;;;2.20;99.90;;;;;;2620307;46;20350;-81
2022/01/14 00:54:15;;;;;;;18.33;13.17;;;2.20;99.90;;;;;;2620107;54;20375;-80
2022/01/14 00:59:14;;;;;;;19.80;13.30;;;2.20;99.90;;;;;;2621138;39;20892;-80
2022/01/14 01:01:53;;;;;;;33.80;20.10;;;2.20;99.90;;;;;;2620566;54;20976;-80
2022/01/14 01:04:22;;;;;;;41.67;23.23;;;2.20;99.90;;;;;;2620130;54;20390;-80
2022/01/14 01:06:48;;;;;;;30.20;18.60;;;2.20;99.90;;;;;;2620827;39;20782;-80
2022/01/14 01:09:15;;;;;;;33.73;23.37;;;2.20;99.90;;;;;;2620333;47;20383;-80
2022/01/14 01:11:49;;;;;;;29.90;19.87;;;2.30;99.90;;;;;;2620198;47;20386;-80
2022/01/14 01:14:21;;;;;;;18.63;11.37;;;2.30;99.90;;;;;;2620527;47;20390;-81
2022/01/14 01:16:47;;;;;;;24.43;15.20;;;2.30;99.90;;;;;;2620587;39;20799;-80
2022/01/14 01:19:13;;;;;;;35.13;24.47;;;2.40;99.90;;;;;;2620030;46;20392;-80
2022/01/14 01:21:39;;;;;;;33.57;20.77;;;2.30;99.90;;;;;;2619805;47;20368;-79
2022/01/14 01:24:05;;;;;;;44.20;22.63;;;2.30;99.90;;;;;;2620022;54;20434;-78
2022/01/14 01:26:36;;;;;;;41.37;22.73;;;2.30;99.90;;;;;;2620381;47;20523;-79
2022/01/14 01:31:41;;;;;;;25.07;16.13;;;2.30;99.90;;;;;;2619975;47;20390;-81
2022/01/14 01:34:11;;;;;;;38.43;23.17;;;2.30;99.90;;;;;;2620360;54;20367;-80
2022/01/14 01:36:39;;;;;;;34.77;22.27;;;2.30;99.90;;;;;;2619727;54;20414;-81
2022/01/14 01:39:07;;;;;;;37.60;23.10;;;2.30;99.90;;;;;;2620041;47;20392;-79
2022/01/14 01:41:37;;;;;;;33.67;23.40;;;2.40;99.90;;;;;;2619903;47;20339;-81
2022/01/14 01:44:06;;;;;;;36.47;25.13;;;2.30;99.90;;;;;;2619638;54;20909;-81
2022/01/14 01:46:34;;;;;;;41.33;24.77;;;2.40;99.90;;;;;;2619717;47;20367;-80
2022/01/14 01:49:00;;;;;;;36.87;23.07;;;2.20;99.90;;;;;;2619795;47;20364;-80
2022/01/14 01:51:26;;;;;;;39.30;24.90;;;2.30;99.90;;;;;;2619667;47;20513;-81
2022/01/14 01:53:52;;;;;;;40.10;25.60;;;2.30;99.90;;;;;;2619688;54;20270;-80
2022/01/14 01:56:18;;;;;;;35.90;23.40;;;2.30;99.90;;;;;;2619557;47;20394;-80
2022/01/14 01:58:44;;;;;;;43.33;27.20;;;2.30;99.90;;;;;;2619518;46;20137;-80
2022/01/14 02:01:12;;;;;;;44.10;26.37;;;2.20;99.90;;;;;;2619651;47;20388;-79
2022/01/14 02:03:38;;;;;;;46.73;28.13;;;2.20;99.90;;;;;;2619556;54;20414;-81
2022/01/14 02:06:05;;;;;;;36.40;25.20;;;2.10;99.90;;;;;;2619622;47;20413;-80
2022/01/14 02:08:32;;;;;;;48.07;25.83;;;2.30;99.90;;;;;;2619601;47;21013;-80
2022/01/14 02:10:59;;;;;;;42.27;25.00;;;2.50;99.90;;;;;;2619323;54;20891;-80
2022/01/14 02:13:26;;;;;;;35.03;24.93;;;2.10;99.90;;;;;;2619445;54;20487;-80
2022/01/14 02:16:17;;;;;;;43.00;25.30;;;2.00;99.90;;;;;;2620202;39;22179;-80
2022/01/14 02:24:33;;;;;;;36.70;24.10;;;2.40;99.90;;;;;;2619128;54;20371;-80
2022/01/14 02:26:59;;;;;;;35.93;22.47;;;2.50;99.90;;;;;;2619160;46;20379;-80
2022/01/14 02:29:25;;;;;;;37.30;22.93;;;2.40;99.90;;;;;;2619149;47;20374;-80
2022/01/14 02:31:51;;;;;;;41.13;24.87;;;2.40;99.90;;;;;;2618827;54;20382;-79
2022/01/14 02:34:17;;;;;;;40.80;24.80;;;2.50;99.90;;;;;;2619202;47;20494;-81
2022/01/14 02:36:45;;;;;;;40.90;23.63;;;2.40;99.90;;;;;;2619132;47;21176;-79
2022/01/14 02:39:12;;;;;;;43.40;25.20;;;2.30;99.90;;;;;;2619035;47;20356;-79
2022/01/14 02:41:40;;;;;;;45.33;24.40;;;2.10;99.90;;;;;;2618947;47;20347;-80
2022/01/14 02:44:09;;;;;;;41.53;24.77;;;1.50;99.90;;;;;;2618600;47;20367;-79
2022/01/14 02:46:40;;;;;;;37.47;24.10;;;1.70;99.90;;;;;;2618859;54;20393;-80
2022/01/14 02:49:16;;;;;;;45.37;25.00;;;1.90;99.90;;;;;;2618876;47;20371;-79
2022/01/14 02:51:44;;;;;;;44.67;24.40;;;1.80;99.90;;;;;;2618901;54;20523;-78
2022/01/14 02:54:22;;;;;;;39.93;23.53;;;1.40;99.90;;;;;;2618909;54;20393;-80
2022/01/14 02:57:02;;;;;;;47.43;27.47;;;1.30;99.90;;;;;;2618949;54;21276;-80
2022/01/14 02:59:32;;;;;;;41.07;23.70;;;1.50;99.90;;;;;;2618815;54;21568;-79
2022/01/14 03:02:02;;;;;;;33.87;23.63;;;1.50;99.90;;;;;;2618928;47;20375;-79
2022/01/14 03:04:36;;;;;;;47.37;27.07;;;1.30;99.90;;;;;;2618861;54;20355;-79
2022/01/14 03:07:03;;;;;;;57.33;28.30;;;1.30;99.90;;;;;;2619044;39;22904;-80
2022/01/14 03:09:29;;;;;;;62.90;27.20;;;1.20;99.90;;;;;;2618717;54;20393;-80
2022/01/14 03:11:58;;;;;;;48.20;25.20;;;1.10;99.90;;;;;;2618766;54;20355;-80
2022/01/14 03:14:25;;;;;;;43.77;25.60;;;1.00;99.90;;;;;;2618997;47;20425;-79
2022/01/14 03:16:58;;;;;;;51.03;26.67;;;1.00;99.90;;;;;;2618957;54;20371;-80
2022/01/14 03:19:25;;;;;;;45.47;27.23;;;1.00;99.90;;;;;;2620006;47;20389;-80
2022/01/14 03:22:06;;;;;;;42.80;25.53;;;1.00;99.90;;;;;;2620389;47;20367;-79
2022/01/14 03:27:05;;;;;;;34.77;17.33;;;1.20;99.90;;;;;;2620395;54;20403;-80
2022/01/14 03:29:31;;;;;;;35.87;26.07;;;1.00;99.90;;;;;;2620535;54;20407;-80
2022/01/14 03:31:57;;;;;;;44.37;23.37;;;1.10;99.90;;;;;;2619706;54;20470;-80
2022/01/14 03:34:23;;;;;;;44.20;26.23;;;1.10;99.90;;;;;;2618782;47;20139;-79
2022/01/14 03:36:49;;;;;;;46.33;26.37;;;1.10;99.90;;;;;;2618976;54;20379;-79
2022/01/14 03:39:18;;;;;;;19.33;12.53;;;1.10;99.90;;;;;;2618636;54;21075;-80
2022/01/14 03:41:45;;;;;;;52.10;25.80;;;1.10;99.90;;;;;;2618805;54;20923;-80
2022/01/14 03:44:11;;;;;;;53.83;25.23;;;1.10;99.90;;;;;;2618913;47;20411;-80
2022/01/14 03:46:37;;;;;;;49.90;27.43;;;1.10;99.90;;;;;;2619016;39;20879;-81
2022/01/14 03:49:03;;;;;;;46.37;28.00;;;1.10;99.90;;;;;;2618843;47;20368;-80
2022/01/14 03:51:30;;;;;;;48.90;28.10;;;1.10;99.90;;;;;;2618767;47;20947;-78
2022/01/14 03:53:56;;;;;;;50.17;26.63;;;1.20;99.90;;;;;;2618951;47;20399;-80
2022/01/14 03:56:25;;;;;;;55.30;26.43;;;1.20;99.90;;;;;;2620463;39;20466;-80
2022/01/14 03:58:55;;;;;;;42.70;26.90;;;1.20;99.90;;;;;;2619445;54;20376;-80
2022/01/14 04:01:22;;;;;;;47.63;27.23;;;1.10;99.90;;;;;;2619521;47;20355;-79
2022/01/14 04:03:49;;;;;;;46.17;26.50;;;1.30;99.90;;;;;;2618952;47;20359;-80
2022/01/14 04:06:16;;;;;;;46.57;26.23;;;1.20;99.90;;;;;;2619212;46;20393;-80
2022/01/14 04:08:43;;;;;;;41.80;26.80;;;1.40;99.90;;;;;;2619113;47;20362;-80
2022/01/14 04:11:10;;;;;;;52.73;28.23;;;1.30;99.90;;;;;;2618789;47;20374;-79
2022/01/14 04:13:46;;;;;;;49.43;28.47;;;1.50;99.90;;;;;;2619134;47;20402;-80
2022/01/14 04:16:15;;;;;;;63.83;30.60;;;1.30;99.90;;;;;;2619661;39;20804;-79
2022/01/14 04:18:41;;;;;;;63.50;28.07;;;1.30;99.90;;;;;;2618884;47;20399;-79
2022/01/14 04:21:08;;;;;;;59.90;28.67;;;1.50;99.90;;;;;;2619066;47;20363;-80
2022/01/14 04:23:34;;;;;;;43.30;25.40;;;1.50;99.90;;;;;;2620335;46;20371;-79
2022/01/14 04:26:07;;;;;;;53.77;27.17;;;1.70;99.90;;;;;;2619535;39;22596;-80
2022/01/14 04:28:35;;;;;;;50.13;27.17;;;1.90;99.90;;;;;;2619060;54;20868;-80
2022/01/14 04:31:03;;;;;;;51.57;26.60;;;1.90;99.90;;;;;;2619420;46;20358;-80
2022/01/14 04:33:31;;;;;;;52.20;27.60;;;1.70;99.90;;;;;;2618954;54;20466;-81
2022/01/14 04:35:58;;;;;;;48.13;26.20;;;1.70;99.90;;;;;;2619082;54;20391;-79
2022/01/14 04:38:27;;;;;;;46.17;25.70;;;1.80;99.90;;;;;;2619217;47;20464;-81
2022/01/14 04:40:53;;;;;;;48.63;25.10;;;1.90;99.90;;;;;;2619082;46;20400;-80
2022/01/14 04:43:20;;;;;;;45.80;26.53;;;1.70;99.90;;;;;;2619216;54;20363;-81
2022/01/14 04:46:36;;;;;;;35.67;22.20;;;1.60;99.90;;;;;;2619127;54;20474;-81
2022/01/14 04:48:40;;;;;;;46.70;24.13;;;1.60;99.90;;;;;;2619674;39;20840;-82
2022/01/14 04:51:07;;;;;;;39.97;24.30;;;1.60;99.90;;;;;;2620419;48;20367;-82
2022/01/14 04:53:40;;;;;;;43.30;23.17;;;1.50;99.90;;;;;;2619907;54;20486;-81
2022/01/14 04:56:06;;;;;;;32.30;20.07;;;1.40;99.90;;;;;;2623119;47;20387;-80
2022/01/14 04:58:32;;;;;;;42.63;24.73;;;1.40;99.90;;;;;;2622245;47;20477;-81
2022/01/14 05:00:58;;;;;;;39.43;23.17;;;1.30;99.90;;;;;;2622037;47;20526;-81
2022/01/14 05:03:24;;;;;;;61.97;29.37;;;1.30;99.90;;;;;;2621796;46;20371;-80
2022/01/14 05:05:54;;;;;;;45.53;29.30;;;1.20;99.90;;;;;;2622343;47;20491;-81
2022/01/14 05:08:24;;;;;;;51.70;27.27;;;1.30;99.90;;;;;;2622010;47;20359;-80
2022/01/14 05:13:20;;;;;;;62.50;27.30;;;1.30;99.90;;;;;;2621847;54;20351;-80
2022/01/14 05:15:48;;;;;;;54.40;29.73;;;1.30;99.90;;;;;;2621546;54;20478;-80
2022/01/14 05:18:14;;;;;;;40.70;26.20;;;1.30;99.90;;;;;;2621571;47;20407;-82
2022/01/14 05:20:40;;;;;;;49.30;28.30;;;1.20;99.90;;;;;;2623120;39;20787;-81
2022/01/14 05:23:06;;;;;;;48.60;20.20;;;1.20;99.90;;;;;;2621955;47;20145;-81
2022/01/14 05:25:32;;;;;;;33.87;23.63;;;1.20;99.90;;;;;;2623399;54;20143;-80
2022/01/14 05:27:58;;;;;;;37.77;20.10;;;1.10;99.90;;;;;;2623376;54;20395;-81
2022/01/14 05:30:24;;;;;;;53.90;30.30;;;1.10;99.90;;;;;;2623729;47;20399;-81
2022/01/14 05:32:52;;;;;;;59.30;30.47;;;1.10;99.90;;;;;;2622775;46;20181;-80
2022/01/14 05:35:22;;;;;;;39.93;19.80;;;1.20;99.90;;;;;;2622691;54;20138;-81
2022/01/14 05:37:48;;;;;;;62.57;28.97;;;1.20;99.90;;;;;;2622616;47;20433;-80
2022/01/14 05:40:16;;;;;;;50.50;25.03;;;1.20;99.90;;;;;;2622394;47;20391;-80
2022/01/14 05:42:43;;;;;;;46.97;24.47;;;1.20;99.90;;;;;;2622540;47;20352;-83
2022/01/14 05:45:11;;;;;;;48.27;28.53;;;1.20;99.90;;;;;;2621509;54;20889;-81
2022/01/14 05:47:40;;;;;;;51.20;30.17;;;1.20;99.90;;;;;;2621335;47;20433;-80
2022/01/14 05:50:11;;;;;;;44.60;25.07;;;1.40;99.90;;;;;;2621570;54;20485;-80
2022/01/14 05:52:37;;;;;;;58.17;31.30;;;1.30;99.90;;;;;;2621772;47;20360;-82
2022/01/14 05:55:05;;;;;;;43.33;27.00;;;1.40;99.90;;;;;;2621428;47;21074;-82
2022/01/14 05:57:42;;;;;;;55.33;31.23;;;1.30;99.90;;;;;;2621176;47;20367;-81
2022/01/14 06:00:14;;;;;;;58.27;29.93;;;1.40;99.90;;;;;;2621932;39;20769;-81
2022/01/14 06:02:49;;;;;;;54.00;30.63;;;1.30;99.90;;;;;;2620959;54;20379;-80
2022/01/14 06:05:18;;;;;;;49.77;25.70;;;1.40;99.90;;;;;;2621503;47;20470;-82
2022/01/14 06:07:44;;;;;;;42.77;26.43;;;1.30;99.90;;;;;;2621401;39;20763;-81
2022/01/14 06:10:10;;;;;;;52.97;29.70;;;1.40;99.90;;;;;;2621762;47;20955;-81
2022/01/14 06:12:37;;;;;;;60.00;29.80;;;1.40;99.90;;;;;;2621388;46;21051;-78
2022/01/14 06:15:04;;;;;;;50.83;28.70;;;1.50;99.90;;;;;;2622643;39;20862;-81
2022/01/14 06:17:32;;;;;;;53.33;31.73;;;1.60;99.90;;;;;;2621460;47;20417;-83
2022/01/14 06:19:58;;;;;;;52.80;30.00;;;1.60;99.90;;;;;;2621418;46;20506;-81
2022/01/14 06:22:24;;;;;;;44.83;28.37;;;1.50;99.90;;;;;;2621666;39;20789;-81
2022/01/14 06:24:50;;;;;;;41.93;25.93;;;1.40;99.90;;;;;;2622607;39;20594;-80
2022/01/14 06:27:17;;;;;;;24.07;15.63;;;1.40;99.90;;;;;;2621288;47;20138;-82
2022/01/14 06:29:42;;;;;;;33.40;18.67;;;1.40;99.90;;;;;;2621859;47;20367;-80
2022/01/14 06:32:08;;;;;;;48.63;26.77;;;1.50;99.90;;;;;;2620719;47;20420;-80
2022/01/14 06:34:35;;;;;;;53.53;26.50;;;1.40;99.90;;;;;;2620722;54;20663;-81
2022/01/14 06:37:02;;;;;;;44.33;26.53;;;1.50;99.90;;;;;;2619316;54;20355;-78
2022/01/14 06:39:28;;;;;;;26.97;16.30;;;1.60;99.90;;;;;;2618061;54;20383;-78
2022/01/14 06:41:54;;;;;;;53.70;25.70;;;1.50;99.90;;;;;;2618039;47;20382;-78
2022/01/14 06:44:20;;;;;;;80.83;28.93;;;1.50;99.90;;;;;;2617997;54;20176;-78
2022/01/14 06:46:45;;;;;;;51.10;29.43;;;1.50;99.90;;;;;;2617926;54;20433;-77
2022/01/14 06:49:12;;;;;;;53.80;27.30;;;1.50;99.90;;;;;;2617941;54;20139;-79
2022/01/14 06:51:38;;;;;;;56.37;31.10;;;1.50;99.90;;;;;;2618171;47;20387;-78
2022/01/14 06:54:04;;;;;;;66.13;32.77;;;1.60;99.90;;;;;;2617787;47;20376;-78
2022/01/14 06:56:30;;;;;;;66.30;30.77;;;1.70;99.90;;;;;;2617798;47;20135;-79
2022/01/14 06:58:55;;;;;;;69.33;31.70;;;1.60;99.90;;;;;;2617907;47;20162;-78
2022/01/14 07:01:21;;;;;;;63.40;29.23;;;1.80;99.90;;;;;;2618458;47;20899;-79
2022/01/14 07:03:51;;;;;;;46.83;23.23;;;1.70;99.90;;;;;;2618455;47;20150;-78
2022/01/14 07:06:17;;;;;;;38.13;24.57;;;1.70;99.90;;;;;;2619498;39;20764;-78
2022/01/14 07:08:43;;;;;;;43.80;26.90;;;1.70;99.90;;;;;;2618764;39;20462;-77
2022/01/14 07:11:15;;;;;;;45.20;27.60;;;1.60;99.90;;;;;;2618725;54;20234;-78
2022/01/14 07:13:43;;;;;;;50.07;29.90;;;1.70;99.90;;;;;;2618538;47;20214;-78
2022/01/14 07:16:08;;;;;;;59.03;33.83;;;1.80;99.90;;;;;;2618922;54;20396;-78
2022/01/14 07:18:35;;;;;;;62.33;31.77;;;1.80;99.90;;;;;;2618767;39;20799;-78
2022/01/14 07:21:02;;;;;;;53.90;29.70;;;1.80;99.90;;;;;;2618571;47;20138;-78
2022/01/14 07:23:27;;;;;;;35.97;25.17;;;1.80;99.90;;;;;;2618377;47;20531;-78
2022/01/14 07:26:00;;;;;;;70.37;34.20;;;1.80;99.90;;;;;;2618815;54;20395;-78
2022/01/14 07:28:27;;;;;;;65.07;29.20;;;1.80;99.90;;;;;;2618394;39;20218;-79
2022/01/14 07:30:56;;;;;;;51.63;28.50;;;1.90;99.90;;;;;;2619489;47;20402;-78
2022/01/14 07:33:22;;;;;;;60.93;27.77;;;1.80;99.90;;;;;;2618928;47;20446;-78
2022/01/14 07:35:49;;;;;;;68.87;33.30;;;1.80;99.90;;;;;;2619213;54;20396;-78
2022/01/14 07:38:15;;;;;;;56.40;30.57;;;1.90;99.90;;;;;;2619145;47;20398;-79
2022/01/14 07:40:50;;;;;;;63.53;34.03;;;1.90;99.90;;;;;;2619090;54;20367;-78
2022/01/14 07:43:19;;;;;;;59.73;34.90;;;2.00;99.90;;;;;;2619151;46;20384;-78
2022/01/14 07:45:45;;;;;;;67.80;34.90;;;2.00;99.90;;;;;;2618967;47;20411;-78
2022/01/14 07:48:11;;;;;;;64.93;30.63;;;2.30;99.90;;;;;;2619246;47;20392;-79
2022/01/14 07:50:38;;;;;;;60.87;36.47;;;2.30;99.90;;;;;;2618904;54;20376;-78
2022/01/14 07:53:06;;;;;;;72.77;34.77;;;2.50;99.90;;;;;;2619330;54;20714;-77
2022/01/14 07:55:32;;;;;;;69.07;36.83;;;2.50;99.90;;;;;;2618946;47;20375;-79
2022/01/14 07:57:58;;;;;;;72.23;34.80;;;2.40;99.90;;;;;;2619128;47;20379;-77
2022/01/14 08:00:31;;;;;;;63.63;32.90;;;2.20;99.90;;;;;;2619041;47;20391;-79
2022/01/14 08:02:58;;;;;;;47.90;23.67;;;2.10;99.90;;;;;;2619012;47;20359;-78
2022/01/14 08:05:27;;;;;;;66.30;36.80;;;2.00;99.90;;;;;;2619542;39;20759;-79
2022/01/14 08:07:57;;;;;;;60.23;33.20;;;2.10;99.90;;;;;;2619040;47;20392;-78
2022/01/14 08:10:25;;;;;;;70.20;36.63;;;2.10;99.90;;;;;;2619582;54;20383;-78
2022/01/14 08:12:53;;;;;;;69.40;36.60;;;2.20;99.90;;;;;;2619862;54;20924;-79
2022/01/14 08:15:20;;;;;;;71.57;37.43;;;2.50;99.90;;;;;;2618741;47;20379;-78
2022/01/14 08:17:47;;;;;;;58.53;31.63;;;2.40;99.90;;;;;;2618971;54;20383;-80
2022/01/14 08:20:22;;;;;;;68.20;37.07;;;2.40;99.90;;;;;;2619004;47;20394;-78
2022/01/14 08:22:49;;;;;;;74.80;35.53;;;2.30;99.90;;;;;;2618930;47;20396;-79
2022/01/14 08:25:15;;;;;;;59.93;36.03;;;2.30;99.90;;;;;;2618917;47;20416;-79
2022/01/14 08:27:42;;;;;;;57.67;29.13;;;2.30;99.90;;;;;;2619377;39;20784;-79
2022/01/14 08:30:08;;;;;;;77.97;35.77;;;2.30;99.90;;;;;;2618945;46;20143;-79
2022/01/14 08:32:34;;;;;;;67.07;30.53;;;2.50;99.90;;;;;;2619524;47;20419;-79
2022/01/14 08:35:00;;;;;;;78.90;31.20;;;2.60;99.90;;;;;;2619011;47;20388;-79
2022/01/14 08:37:27;;;;;;;61.90;31.37;;;2.30;99.90;;;;;;2618887;46;20146;-79
2022/01/14 08:39:55;;;;;;;73.77;36.27;;;2.20;99.90;;;;;;2619062;39;20771;-79
2022/01/14 08:42:21;;;;;;;65.00;35.50;;;2.40;99.90;;;;;;2618793;47;20382;-79
2022/01/14 08:44:48;;;;;;;78.20;37.60;;;2.40;99.90;;;;;;2618979;47;20375;-77
2022/01/14 08:47:13;;;;;;;80.53;37.70;;;2.30;99.90;;;;;;2618946;46;20378;-79
2022/01/14 08:49:41;;;;;;;90.43;39.10;;;2.20;99.90;;;;;;2619077;46;20388;-77
2022/01/14 08:52:09;;;;;;;69.13;36.13;;;2.40;99.90;;;;;;2618932;46;20380;-79
2022/01/14 08:54:36;;;;;;;80.63;35.47;;;2.40;99.90;;;;;;2619342;47;20416;-79
2022/01/14 08:57:03;;;;;;;59.13;30.50;;;2.40;99.90;;;;;;2618966;47;20960;-79
2022/01/14 08:59:30;;;;;;;77.83;38.07;;;2.30;99.90;;;;;;2619799;39;20820;-80
2022/01/14 09:01:58;;;;;;;101.00;38.40;;;2.60;99.90;;;;;;2619299;46;20367;-79
2022/01/14 09:04:24;;;;;;;87.90;41.40;;;2.60;99.90;;;;;;2619106;47;20392;-80
2022/01/14 09:06:50;;;;;;;85.97;34.67;;;2.70;99.90;;;;;;2618887;47;20374;-80
2022/01/14 09:09:17;;;;;;;87.37;38.10;;;2.50;99.90;;;;;;2618943;54;20466;-78
2022/01/14 09:11:43;;;;;;;80.23;29.47;;;2.80;99.90;;;;;;2619132;46;20383;-78
2022/01/14 09:14:09;;;;;;;70.60;34.50;;;2.80;99.90;;;;;;2619446;47;20398;-79
2022/01/14 09:16:37;;;;;;;68.47;29.77;;;2.80;99.90;;;;;;2618941;47;20359;-79
2022/01/14 09:19:03;;;;;;;122.47;41.50;;;2.50;99.90;;;;;;2619031;47;20388;-78
2022/01/14 09:21:38;;;;;;;94.50;38.63;;;2.50;99.90;;;;;;2618913;47;20949;-79
2022/01/14 09:24:09;;;;;;;73.77;35.57;;;2.60;99.90;;;;;;2618832;47;20378;-79
2022/01/14 09:26:37;;;;;;;102.70;39.87;;;2.70;99.90;;;;;;2618843;47;20972;-79
2022/01/14 09:29:07;;;;;;;95.47;32.27;;;2.70;99.90;;;;;;2619405;39;20735;-79
2022/01/14 09:31:33;;;;;;;88.30;35.50;;;2.60;99.90;;;;;;2619211;54;20900;-79
2022/01/14 09:34:02;;;;;;;105.67;37.73;;;2.50;99.90;;;;;;2618778;46;20374;-80
2022/01/14 09:36:29;;;;;;;92.80;34.30;;;2.60;99.90;;;;;;2618892;47;20371;-79
2022/01/14 09:38:57;;;;;;;92.87;33.50;;;2.50;99.90;;;;;;2618783;47;20419;-78
2022/01/14 09:41:23;;;;;;;106.77;38.60;;;2.40;99.90;;;;;;2618678;47;20468;-79
2022/01/14 09:43:49;;;;;;;120.23;39.97;;;2.60;99.90;;;;;;2618775;46;20367;-79
2022/01/14 09:46:15;;;;;;;126.33;38.57;;;3.00;99.90;;;;;;2618610;54;20371;-79
2022/01/14 09:48:47;;;;;;;77.33;36.30;;;2.90;99.90;;;;;;2619059;39;20773;-79
2022/01/14 09:51:12;;;;;;;76.47;31.77;;;2.90;99.90;;;;;;2618447;47;20394;-78
2022/01/14 09:53:39;;;;;;;95.03;36.53;;;2.90;99.90;;;;;;2618700;47;20367;-78
2022/01/14 09:56:05;;;;;;;98.60;36.43;;;3.10;99.90;;;;;;2618986;54;20139;-79
2022/01/14 09:58:40;;;;;;;104.50;38.77;;;3.50;99.90;;;;;;2618578;47;20404;-78
2022/01/14 10:01:14;;;;;;;99.20;36.70;;;3.50;99.90;;;;;;2618621;54;20363;-79
2022/01/14 10:03:49;;;;;;;90.97;37.00;;;3.30;99.90;;;;;;2619036;39;20746;-79
2022/01/14 10:06:37;;;;;;;90.00;35.90;;;3.10;99.90;;;;;;2618659;47;20358;-78
2022/01/14 10:09:08;;;;;;;112.47;38.77;;;3.40;99.90;;;;;;2618563;46;20488;-78
2022/01/14 10:11:38;;;;;;;84.77;37.20;;;3.10;99.90;;;;;;2618643;46;20422;-79
2022/01/14 10:14:11;;;;;;;114.57;39.77;;;3.30;99.90;;;;;;2618451;47;20940;-79
2022/01/14 10:16:40;;;;;;;90.37;35.67;;;3.50;99.90;;;;;;2619290;54;20394;-79
2022/01/14 10:19:33;;;;;;;87.80;38.07;;;3.70;99.90;;;;;;2618412;47;20376;-81
2022/01/14 10:21:59;;;;;;;80.93;33.70;;;3.70;99.90;;;;;;2618491;46;20387;-79
2022/01/14 10:24:32;;;;;;;85.80;35.67;;;3.70;99.90;;;;;;2618990;39;20896;-79
2022/01/14 10:27:05;;;;;;;83.67;34.47;;;3.30;99.90;;;;;;2618992;39;20884;-78
2022/01/14 10:29:33;;;;;;;111.50;39.23;;;3.10;99.90;;;;;;2618589;46;20483;-79
2022/01/14 10:32:00;;;;;;;103.33;40.20;;;3.30;99.90;;;;;;2618550;47;20429;-80
2022/01/14 10:34:27;;;;;;;117.57;41.37;;;3.40;99.90;;;;;;2618659;47;20397;-79
2022/01/14 10:37:16;;;;;;;80.63;36.40;;;3.50;99.90;;;;;;2618750;47;20426;-78
2022/01/14 10:39:45;;;;;;;65.37;33.07;;;3.70;99.90;;;;;;2618383;47;20371;-79
2022/01/14 10:42:29;;;;;;;99.47;39.10;;;3.60;99.90;;;;;;2618413;47;20375;-78
2022/01/14 10:45:13;;;;;;;94.90;37.57;;;3.50;99.90;;;;;;2618386;54;20875;-79
2022/01/14 10:47:40;;;;;;;77.10;34.07;;;3.90;99.90;;;;;;2618507;47;20463;-78
2022/01/14 10:50:06;;;;;;;74.63;35.03;;;3.80;99.90;;;;;;2618488;47;20459;-79
2022/01/14 10:52:33;;;;;;;94.93;39.00;;;3.70;99.90;;;;;;2618462;47;20483;-79
2022/01/14 10:54:59;;;;;;;70.87;35.07;;;3.40;99.90;;;;;;2618540;47;20378;-78
2022/01/14 10:57:28;;;;;;;91.70;37.60;;;3.30;99.90;;;;;;2618867;47;20374;-78
2022/01/14 10:59:56;;;;;;;74.50;34.87;;;3.50;99.90;;;;;;2618922;39;20825;-77
2022/01/14 11:02:33;;;;;;;86.20;36.30;;;3.30;99.90;;;;;;2618485;47;20471;-78
2022/01/14 11:05:12;;;;;;;86.47;39.97;;;3.20;99.90;;;;;;2619330;47;20439;-78
2022/01/14 11:07:39;;;;;;;78.60;39.27;;;3.60;99.90;;;;;;2619354;46;20367;-78
2022/01/14 11:10:27;;;;;;;79.97;35.40;;;3.30;99.90;;;;;;2619166;46;20924;-79
2022/01/14 11:12:56;;;;;;;65.80;35.10;;;3.20;99.90;;;;;;2619352;54;20390;-79
2022/01/14 11:15:24;;;;;;;86.03;33.10;;;3.10;99.90;;;;;;2619959;47;20402;-79
2022/01/14 11:17:54;;;;;;;64.37;30.80;;;3.00;99.90;;;;;;2619637;54;20375;-79
2022/01/14 11:20:30;;;;;;;66.50;32.97;;;2.90;99.90;;;;;;2619350;46;20399;-79
2022/01/14 11:23:15;;;;;;;72.70;30.30;;;3.30;99.90;;;;;;2619365;54;20419;-79
2022/01/14 11:26:06;;;;;;;63.30;31.70;;;3.30;99.90;;;;;;2619323;46;20406;-80
2022/01/14 11:28:39;;;;;;;79.43;33.20;;;3.00;99.90;;;;;;2619089;47;20363;-80
2022/01/14 11:31:32;;;;;;;79.20;33.67;;;3.20;99.90;;;;;;2619226;47;20946;-80
2022/01/14 11:34:00;;;;;;;78.70;38.50;;;3.30;99.90;;;;;;2619485;47;20414;-78
2022/01/14 11:36:48;;;;;;;66.70;33.60;;;3.50;99.90;;;;;;2619821;54;20428;-79
2022/01/14 11:39:23;;;;;;;76.97;34.17;;;3.80;99.90;;;;;;2619526;46;20373;-79
2022/01/14 11:41:53;;;;;;;85.07;38.70;;;4.10;99.90;;;;;;2619616;39;20777;-80
2022/01/14 11:44:44;;;;;;;83.83;42.40;;;4.50;99.90;;;;;;2619334;46;20969;-80
2022/01/14 11:47:44;;;;;;;75.37;34.80;;;4.70;99.90;;;;;;2619317;54;20383;-80
2022/01/14 11:50:19;;;;;;;70.23;34.10;;;4.30;99.90;;;;;;2618230;46;20388;-78
2022/01/14 11:52:47;;;;;;;77.20;35.00;;;4.40;99.90;;;;;;2618466;46;21009;-78
2022/01/14 11:55:21;;;;;;;83.03;35.47;;;4.70;99.90;;;;;;2618362;46;20380;-80
2022/01/14 11:57:52;;;;;;;89.83;38.70;;;4.50;99.90;;;;;;2620755;47;20403;-82
2022/01/14 12:00:27;;;;;;;87.23;34.63;;;4.50;99.90;;;;;;2624174;54;20480;-82
2022/01/14 12:03:12;;;;;;;75.30;34.17;;;4.50;99.90;;;;;;2624247;46;20471;-81
2022/01/14 12:06:07;;;;;;;67.50;32.63;;;4.60;99.90;;;;;;2623887;46;20390;-82
2022/01/14 12:08:39;;;;;;;77.03;36.07;;;4.50;99.90;;;;;;2624767;47;20387;-80
2022/01/14 12:11:05;;;;;;;83.63;35.87;;;4.30;99.90;;;;;;2625136;47;20363;-82
2022/01/14 12:13:55;;;;;;;63.63;33.20;;;4.00;99.90;;;;;;2624941;46;20515;-82
2022/01/14 12:16:49;;;;;;;76.27;32.43;;;4.10;99.90;;;;;;2625180;39;20631;-81
2022/01/14 12:19:15;;;;;;;66.77;34.40;;;4.00;99.90;;;;;;2624928;47;20380;-81
2022/01/14 12:21:53;;;;;;;66.03;28.50;;;4.50;99.90;;;;;;2624720;47;20436;-81
2022/01/14 12:24:21;;;;;;;67.43;32.27;;;4.10;99.90;;;;;;2625088;47;20367;-81
2022/01/14 12:27:17;;;;;;;81.97;34.67;;;4.10;99.90;;;;;;2624588;47;20396;-82
2022/01/14 12:29:51;;;;;;;79.73;34.00;;;4.40;99.90;;;;;;2625211;46;21056;-80
2022/01/14 12:32:30;;;;;;;69.23;32.63;;;4.10;99.90;;;;;;2624767;47;20427;-82
2022/01/14 12:34:56;;;;;;;56.63;30.53;;;4.10;99.90;;;;;;2625303;31;20845;-82
2022/01/14 12:37:25;;;;;;;58.40;32.77;;;4.20;99.90;;;;;;2624665;47;20502;-82
2022/01/14 12:39:57;;;;;;;65.83;29.83;;;4.60;99.90;;;;;;2625071;47;20146;-82
2022/01/14 12:42:24;;;;;;;65.83;31.13;;;4.70;99.90;;;;;;2624277;47;20388;-80
2022/01/14 12:44:52;;;;;;;71.57;31.90;;;4.80;99.90;;;;;;2625422;39;20826;-81
2022/01/14 12:47:32;;;;;;;59.70;32.67;;;4.70;99.90;;;;;;2625155;54;20375;-81
2022/01/14 12:50:07;;;;;;;61.63;29.27;;;4.80;99.90;;;;;;2624975;54;20391;-82
2022/01/14 12:52:45;;;;;;;78.20;34.70;;;4.70;99.90;;;;;;2624629;47;20379;-81
2022/01/14 12:55:12;;;;;;;71.63;31.67;;;4.50;99.90;;;;;;2626670;39;20766;-81
2022/01/14 12:57:38;;;;;;;60.87;32.03;;;4.40;99.90;;;;;;2625341;54;20375;-82
2022/01/14 13:00:08;;;;;;;60.97;32.60;;;4.30;99.90;;;;;;2625520;47;20402;-83
2022/01/14 13:02:34;;;;;;;68.77;32.50;;;4.60;99.90;;;;;;2625743;47;20412;-82
2022/01/14 13:05:05;;;;;;;56.93;29.47;;;4.70;99.90;;;;;;2625357;54;20463;-82
2022/01/14 13:07:32;;;;;;;70.83;33.50;;;4.50;99.90;;;;;;2625018;46;20219;-83
2022/01/14 13:10:12;;;;;;;81.47;36.03;;;4.70;99.90;;;;;;2626276;46;20443;-80